KDNS/DNS METAR and TAF weather

Enter ICAO airport designator
Station Type Date Time Source
KDNS METAR 2022/06/27 09:15 UTC NOAA

KDNS 270915Z AUTO 10004KT 10SM CLR 09/09 A3033 RMK AO2


Station Type Date Time Source
KDNS Decoded METAR 2022/06/27 09:15 UTC NOAA

Denison, IA, United States (KDNS) 41-59N 095-23W
Jun 27, 2022 - 05:15 AM EDT / 2022.06.27 0915 UTC
Wind: from the E (100 degrees) at 5 MPH (4 KT):0
Visibility: 10 mile(s):0
Sky conditions: clear
Temperature: 48 F (9 C)
Dew Point: 48 F (9 C)
Relative Humidity: 100%
Pressure (altimeter): 30.33 in. Hg (1027 hPa)
ob: KDNS 270915Z AUTO 10004KT 10SM CLR 09/09 A3033 RMK AO2
cycle: 9

Station Type Date Time Source
KDNS TAF UTC NOAA

Error!

Example: see airport list